Nearby METAR Reports

 

KCXP - Carson City, Nevada, USA
Distance from station: WSW 2mi, 3km
Updated: Sat, May-27-2017 9:35pm PDT
Clear
Clear
 Wind from NNW
Wind: NNW 7 mph , 11 km/h
Temperature: 63°F , 17°C
Dew Point: 19°F , -7°C
Humidity: 19%
Barometer: 30.17 inHg , 1021.7 hPa
Clouds: Clear
Visibility: 10 miles , 16 km
2017/05/28 04:35 KCXP 280435Z AUTO 34006KT 10SM CLR 17/M07 A3017 RMK AO2
KRNO - Reno, Nevada, USA
Distance from station: N 21mi, 34km
Updated: Sat, May-27-2017 8:55pm PDT
Few Clouds
Few Clouds
 Wind from NE
Wind: NE 3 mph , 6 km/h
Temperature: 72°F , 22°C
Dew Point: 19°F , -7°C
Humidity: 14%
Barometer: 30.13 inHg , 1020.3 hPa
Clouds: Few Clouds
Visibility: 10 miles , 16 km
Cloud details: Few Clouds 20000 ft
2017/05/28 03:55 KRNO 280355Z 05003KT 10SM FEW200 22/M07 A3013 RMK AO2 SLP157 T02221067
 
KTRK - Truckee Tahoe, California, USA
Distance from station: WNW 24mi, 38km
Updated: Sat, May-27-2017 9:35pm PDT
Clear
Clear
 Wind from calm
Wind: Calm
Temperature: 46°F , 8°C
Dew Point: 28°F , -2°C
Humidity: 50%
Barometer: 30.24 inHg , 1024 hPa
Clouds: Clear
Visibility: 10 miles , 16 km
2017/05/28 04:35 KTRK 280435Z AUTO 00000KT 10SM CLR 08/M02 A3024 RMK AO2
KTVL - South Lake Tahoe, California, USA
Distance from station: SW 26mi, 42km
Updated: Sat, May-27-2017 8:53pm PDT
Clear
Clear
 Wind from S
Wind: S 3 mph , 6 km/h
Temperature: 52°F , 11°C
Dew Point: 30°F , -1°C
Humidity: 44%
Barometer: 30.23 inHg , 1023.7 hPa
Clouds: Clear
Visibility: 10 miles , 16 km
2017/05/28 03:53 KTVL 280353Z AUTO 19003KT 10SM CLR 11/M01 A3023 RMK AO2 SLP193 T01111011
 
KRTS - Reno/Stead, Nevada, USA
Distance from station: NNW 34mi, 54km
Updated: Sat, May-27-2017 9:35pm PDT
Clear
Clear
 Wind from N
Wind: N 5 mph , 7 km/h
Temperature: 50°F , 10°C
Wind Chill: 48°F , 9°C
Dew Point: 25°F , -4°C
Humidity: 37%
Barometer: 30.18 inHg , 1022 hPa
Clouds: Clear
Visibility: 10 miles , 16 km
2017/05/28 04:35 KRTS 280435Z AUTO 35004KT 10SM CLR 10/M04 A3018 RMK AO2
KBLU - Emigrant Gap, California, USA
Distance from station: W 54mi, 87km
Updated: Sat, May-27-2017 8:52pm PDT
Clear
Clear
 Wind from calm
Wind: Calm
Temperature: 55°F , 13°C
Dew Point: 50°F , 10°C
Humidity: 82%
Barometer: 30.20 inHg , 1022.7 hPa
Clouds: Clear
Visibility: 10 miles , 16 km
2017/05/28 03:52 KBLU 280352Z AUTO 00000KT 10SM CLR 13/10 A3020 RMK AO2 SLP166 T01280100 TSNO
 
KNFL - Fallon Nas, Nevada, USA
Distance from station: ENE 56mi, 89km
Updated: Sat, May-27-2017 8:56pm PDT
Clear
Clear
 Wind from NNW
Wind: NNW 6 mph , 9 km/h
Temperature: 66°F , 19°C
Dew Point: 23°F , -5°C
Humidity: 19%
Barometer: 30.09 inHg , 1019 hPa
Clouds: Clear
Visibility: 10 miles , 16 km
2017/05/28 03:56 KNFL 280356Z AUTO 34005KT 10SM CLR 19/M05 A3009 RMK AO2 SLP156 T01941050
KBAN - Bridgeport(Mcmwt, California, USA
Distance from station: S 60mi, 96km
Updated: Sat, May-27-2017 8:52pm PDT
Clear
Clear
 Wind from calm
Wind: Calm
Temperature: 54°F , 12°C
Dew Point: 25°F , -4°C
Humidity: 33%
Barometer: 30.23 inHg , 1023.7 hPa
Clouds: Clear
Visibility: 10 miles , 16 km
2017/05/28 03:52 KBAN 280352Z AUTO 00000KT 10SM CLR 12/M04 A3023 RMK AO2 SLP165 T01221044 $
 
KPVF - Placerville, California, USA
Distance from station: WSW 66mi, 105km
Updated: Sat, May-27-2017 9:35pm PDT
Clear
Clear
 Wind from calm
Wind: Calm
Temperature: 63°F , 17°C
Dew Point: 50°F , 10°C
Humidity: 64%
Barometer: 30.10 inHg , 1019.3 hPa
Clouds: Clear
Visibility: 10 miles , 16 km
2017/05/28 04:35 KPVF 280435Z AUTO 00000KT 10SM CLR 17/10 A3010 RMK AO1
KGOO - Grass Valley, California, USA
Distance from station: W 70mi, 112km
Updated: Fri, May-05-2017 6:55am PDT
NOT Current
Clear
Clear
 Wind from SE
Wind: SE 3 mph , 6 km/h
Temperature: 59°F , 15°C
Dew Point: 46°F , 8°C
Humidity: 63%
Barometer: 29.93 inHg , 1013.5 hPa
Clouds: Clear
Visibility: 10 miles , 16 km
2017/05/05 13:55 KGOO 051355Z AUTO 14003KT 10SM CLR 15/08 A2993 RMK AO1
 
KAUN - Auburn Muni, California, USA
Distance from station: WSW 76mi, 123km
Updated: Sat, May-27-2017 9:35pm PDT
Clear
Clear
 Wind from calm
Wind: Calm
Temperature: 66°F , 19°C
Dew Point: 54°F , 12°C
Humidity: 64%
Barometer: 30.05 inHg , 1017.6 hPa
Clouds: Clear
Visibility: 10 miles , 16 km
2017/05/28 04:35 KAUN 280435Z AUTO 00000KT 10SM CLR 19/12 A3005 RMK AO1
KLOL - Lovelock, Nevada, USA
Distance from station: NE 85mi, 137km
Updated: Sat, May-27-2017 8:53pm PDT
Clear
Clear
 Wind from NE
Wind: NE 5 mph , 7 km/h
Temperature: 70°F , 21°C
Dew Point: 27°F , -3°C
Humidity: 20%
Barometer: 30.09 inHg , 1019 hPa
Clouds: Clear
Visibility: 10 miles , 16 km
2017/05/28 03:53 KLOL 280353Z AUTO 05004KT 10SM CLR 21/M03 A3009 RMK AO2 SLP160 T02111033 TSNO
 
KLHM - Lincoln, California, USA
Distance from station: WSW 91mi, 146km
Updated: Sat, May-27-2017 9:35pm PDT
Clear
Clear
 Wind from SSW
Wind: SSW 8 mph , 13 km/h
Temperature: 64°F , 18°C
Dew Point: 50°F , 10°C
Humidity: 60%
Barometer: 30.00 inHg , 1015.9 hPa
Clouds: Clear
Visibility: 10 miles , 16 km
2017/05/28 04:35 KLHM 280435Z AUTO 20007KT 10SM CLR 18/10 A3000 RMK AO1
KBAB - Beale Afb/Marysv, California, USA
Distance from station: W 92mi, 148km
Updated: Sat, May-27-2017 8:58pm PDT
Clear
Clear
 Wind from S
Wind: S 7 mph , 11 km/h
Temperature: 70°F , 21°C
Dew Point: 55°F , 13°C
Humidity: 60%
Barometer: 29.97 inHg , 1014.9 hPa
Clouds: Clear
Visibility: 10 miles , 16 km
2017/05/28 03:58 KBAB 280358Z AUTO 18006KT 10SM CLR 21/13 A2997 RMK AO2 SLP151 T02060134 $
 
KMHR - Mather Field, California, USA
Distance from station: WSW 97mi, 156km
Updated: Sat, May-27-2017 8:45pm PDT
Clear
Clear
 Wind from SW
Wind: SW 9 mph , 15 km/h
Temperature: 68°F , 20°C
Dew Point: 52°F , 11°C
Humidity: 56%
Barometer: 30.01 inHg , 1016.3 hPa
Clouds: Clear
Visibility: 10 miles , 16 km
2017/05/28 03:45 KMHR 280345Z 23008KT 10SM SKC 20/11 A3001
KMCC - Mcclellan Afb, California, USA
Distance from station: WSW 99mi, 159km
Updated: Sat, May-27-2017 9:35pm PDT
Clear
Clear
 Wind from S
Wind: S 8 mph , 13 km/h
Temperature: 66°F , 19°C
Dew Point: 50°F , 10°C
Humidity: 56%
Barometer: 30.03 inHg , 1016.9 hPa
Clouds: Clear
Visibility: 10 miles , 16 km
2017/05/28 04:35 KMCC 280435Z AUTO 19007KT 10SM CLR 19/10 A3003 RMK AO2
 
KMYV - Marysville, California, USA
Distance from station: W 100mi, 161km
Updated: Sat, May-27-2017 8:53pm PDT
Clear
Clear
 Wind from S
Wind: S 8 mph , 13 km/h
Temperature: 72°F , 22°C
Dew Point: 54°F , 12°C
Humidity: 53%
Barometer: 29.99 inHg , 1015.6 hPa
Clouds: Clear
Visibility: 10 miles , 16 km
2017/05/28 03:53 KMYV 280353Z AUTO 19007KT 10SM CLR 22/12 A2999 RMK AO2 SLP158 T02170122 TSNO